Thunder radar more information blitzortung!


Radar de pluja more information rain snow radar


Visita la nostra xarxa de llocs de meteo:

Template documentation
and downloads

And another site



No particular awareness of the weather is required.    There are no Weather-warnings

Pagina Historial Weather Underground text

Diari Resum Juny 30, 2017 Unitats:  Tant    Imperial   Mètric
« Previous Dia
SegĂźent Dia »
Diari Setmana Mensual Anual Personalitzada
  Maxima: Minima: Media:
Temperatura: 81.7 °F /  27.6 °C 59.4 °F /  15.2 °C 72.9 °F /  22.7 °C
Punt de rosada: 49.6 °F /  9.8 °C 38.7 °F /  3.7 °C 42.8 °F /  6 °C
Humitat: 55 % 25 % 35 %
Wind Speed: 17.3 mph /  27.8 km/h - 5.2 mph /  8.4 km/h
RĂ fegues de vent: 17.3 mph /  27.8 km/h - -
Vent:- - SW
Pression baro: 30 in /  1015.8 hPa 29.8 in /  1009.0 hPa -
Precipitacions: 0 in /  0.0 mm    
Historical Graphs
 
 
Dades de taula per Juny 30, 2017
Temps Temperatura Punt de rosada Pression baro Vent Wind Speed RĂ fegues de vent Humitat Rainfall Rate (Hourly)
00:02 67.5 °F /  19.7 °C 47.7 °F /  8.7 °C 29.8 in /  1009.0 hPa ESE 3.5 mph /  5.6 km/h 3.5 mph /  5.6 km/h 49 % 0 in /  0.0 mm
00:05 61.5 °F /  16.4 °C 43.7 °F /  6.5 °C 29.8 in /  1010.0 hPa NNE 1 mph /  1.6 km/h 3 mph /  4.8 km/h 52 % 0 in /  0.0 mm
00:07 67.3 °F /  19.6 °C 47.5 °F /  8.6 °C 29.8 in /  1009.0 hPa ESE 7.4 mph /  11.9 km/h 7.4 mph /  11.9 km/h 49 % 0 in /  0.0 mm
00:12 66.6 °F /  19.2 °C 46.8 °F /  8.2 °C 29.8 in /  1010.0 hPa ESE 4.6 mph /  7.4 km/h 4.6 mph /  7.4 km/h 49 % 0 in /  0.0 mm
00:15 61.7 °F /  16.5 °C 43.9 °F /  6.6 °C 29.8 in /  1010.0 hPa NW 1 mph /  1.6 km/h 1 mph /  1.6 km/h 52 % 0 in /  0.0 mm
00:25 61.9 °F /  16.6 °C 44.1 °F /  6.7 °C 29.8 in /  1010.0 hPa NNW 1 mph /  1.6 km/h 2 mph /  3.2 km/h 52 % 0 in /  0.0 mm
00:35 62.1 °F /  16.7 °C 44.2 °F /  6.8 °C 29.8 in /  1010.0 hPa NNE 2 mph /  3.2 km/h 3 mph /  4.8 km/h 52 % 0 in /  0.0 mm
00:45 61.9 °F /  16.6 °C 44.1 °F /  6.7 °C 29.8 in /  1010.0 hPa Calm   1 mph /  1.6 km/h 52 % 0 in /  0.0 mm
00:55 61.5 °F /  16.4 °C 43.7 °F /  6.5 °C 29.8 in /  1010.0 hPa Calm     52 % 0 in /  0.0 mm
01:05 61.3 °F /  16.3 °C 44.1 °F /  6.7 °C 29.8 in /  1010.0 hPa Calm   2 mph /  3.2 km/h 53 % 0 in /  0.0 mm
01:15 61.2 °F /  16.2 °C 43.9 °F /  6.6 °C 29.8 in /  1010.0 hPa Calm   1 mph /  1.6 km/h 53 % 0 in /  0.0 mm
01:25 59.9 °F /  15.5 °C 42.6 °F /  5.9 °C 29.8 in /  1010.7 hPa WSW 2 mph /  3.2 km/h 3 mph /  4.8 km/h 53 % 0 in /  0.0 mm
01:35 59.4 °F /  15.2 °C 42.6 °F /  5.9 °C 29.8 in /  1010.7 hPa SW 1 mph /  1.6 km/h 2 mph /  3.2 km/h 54 % 0 in /  0.0 mm
01:45 59.5 °F /  15.3 °C 43 °F /  6.1 °C 29.8 in /  1010.7 hPa SW 2 mph /  3.2 km/h 3 mph /  4.8 km/h 54 % 0 in /  0.0 mm
01:55 59.5 °F /  15.3 °C 43 °F /  6.1 °C 29.8 in /  1010.7 hPa WSW 1 mph /  1.6 km/h 3 mph /  4.8 km/h 54 % 0 in /  0.0 mm
02:05 59.5 °F /  15.3 °C 43.3 °F /  6.3 °C 29.8 in /  1010.7 hPa Calm   1 mph /  1.6 km/h 55 % 0 in /  0.0 mm
02:15 59.5 °F /  15.3 °C 43.3 °F /  6.3 °C 29.8 in /  1010.7 hPa Calm     55 % 0 in /  0.0 mm
02:25 60.1 °F /  15.6 °C 43.9 °F /  6.6 °C 29.8 in /  1010.7 hPa WSW 1 mph /  1.6 km/h 2 mph /  3.2 km/h 55 % 0 in /  0.0 mm
02:35 60.8 °F /  16.0 °C 44.4 °F /  6.9 °C 29.9 in /  1011.7 hPa WSW 2 mph /  3.2 km/h 2 mph /  3.2 km/h 55 % 0 in /  0.0 mm
02:45 62.1 °F /  16.7 °C 45.7 °F /  7.6 °C 29.9 in /  1011.7 hPa Calm   2 mph /  3.2 km/h 55 % 0 in /  0.0 mm
02:55 63.5 °F /  17.5 °C 46.6 °F /  8.1 °C 29.9 in /  1011.7 hPa SW 1 mph /  1.6 km/h 2 mph /  3.2 km/h 54 % 0 in /  0.0 mm
03:05 63.7 °F /  17.6 °C 46.8 °F /  8.2 °C 29.9 in /  1011.7 hPa South 1 mph /  1.6 km/h 2 mph /  3.2 km/h 54 % 0 in /  0.0 mm
03:15 64.8 °F /  18.2 °C 47.1 °F /  8.4 °C 29.9 in /  1011.7 hPa SSE 2 mph /  3.2 km/h 2 mph /  3.2 km/h 53 % 0 in /  0.0 mm
03:25 65.3 °F /  18.5 °C 47.7 °F /  8.7 °C 29.9 in /  1011.7 hPa Calm   2 mph /  3.2 km/h 53 % 0 in /  0.0 mm
03:35 64.8 °F /  18.2 °C 47.1 °F /  8.4 °C 29.8 in /  1010.7 hPa SW 1 mph /  1.6 km/h 3 mph /  4.8 km/h 53 % 0 in /  0.0 mm
03:45 65.3 °F /  18.5 °C 47.1 °F /  8.4 °C 29.8 in /  1010.7 hPa SW 2 mph /  3.2 km/h 3 mph /  4.8 km/h 52 % 0 in /  0.0 mm
03:55 66.6 °F /  19.2 °C 47.8 °F /  8.8 °C 29.9 in /  1011.7 hPa Calm   2 mph /  3.2 km/h 51 % 0 in /  0.0 mm
04:05 67.8 °F /  19.9 °C 48.9 °F /  9.4 °C 29.9 in /  1011.7 hPa NNW 1 mph /  1.6 km/h 3 mph /  4.8 km/h 51 % 0 in /  0.0 mm
04:15 69.1 °F /  20.6 °C 49.6 °F /  9.8 °C 29.9 in /  1011.7 hPa ENE 1 mph /  1.6 km/h 3 mph /  4.8 km/h 50 % 0 in /  0.0 mm
04:25 69.3 °F /  20.7 °C 49.3 °F /  9.6 °C 29.9 in /  1011.7 hPa East 3 mph /  4.8 km/h 4 mph /  6.4 km/h 49 % 0 in /  0.0 mm
04:35 70.2 °F /  21.2 °C 49.5 °F /  9.7 °C 29.9 in /  1011.7 hPa ENE 2 mph /  3.2 km/h 2 mph /  3.2 km/h 48 % 0 in /  0.0 mm
04:45 70.2 °F /  21.2 °C 48.4 °F /  9.1 °C 29.9 in /  1011.7 hPa SW 3 mph /  4.8 km/h 4 mph /  6.4 km/h 46 % 0 in /  0.0 mm
09:48 70.5 °F /  21.4 °C 47.5 °F /  8.6 °C 29.9 in /  1012.8 hPa WSW 2.3 mph /  3.7 km/h 2.6 mph /  4.2 km/h 44 % 0 in /  0.0 mm
09:53 70.2 °F /  21.2 °C 46.6 °F /  8.1 °C 29.9 in /  1012.8 hPa WNW 5.8 mph /  9.3 km/h 5.8 mph /  9.3 km/h 43 % 0 in /  0.0 mm
09:58 71.1 °F /  21.7 °C 47.5 °F /  8.6 °C 29.9 in /  1012.8 hPa West 2.6 mph /  4.2 km/h 2.6 mph /  4.2 km/h 43 % 0 in /  0.0 mm
10:03 71.1 °F /  21.7 °C 46.8 °F /  8.2 °C 29.9 in /  1012.8 hPa WSW 5.8 mph /  9.3 km/h 5.8 mph /  9.3 km/h 42 % 0 in /  0.0 mm
10:08 71.8 °F /  22.1 °C 47.5 °F /  8.6 °C 29.9 in /  1012.8 hPa WSW 2.4 mph /  3.9 km/h 2.4 mph /  3.9 km/h 42 % 0 in /  0.0 mm
10:13 71.2 °F /  21.8 °C 46.9 °F /  8.3 °C 29.9 in /  1011.7 hPa SSW 5.8 mph /  9.3 km/h 5.8 mph /  9.3 km/h 42 % 0 in /  0.0 mm
10:18 72.5 °F /  22.5 °C 48 °F /  8.9 °C 29.9 in /  1011.7 hPa WSW 3.5 mph /  5.6 km/h 3.5 mph /  5.6 km/h 42 % 0 in /  0.0 mm
10:23 72.1 °F /  22.3 °C 47.1 °F /  8.4 °C 29.9 in /  1011.7 hPa WNW 6.9 mph /  11.1 km/h 6.9 mph /  11.1 km/h 41 % 0 in /  0.0 mm
10:28 72 °F /  22.2 °C 46.2 °F /  7.9 °C 29.9 in /  1011.7 hPa West 5.8 mph /  9.3 km/h 5.8 mph /  9.3 km/h 40 % 0 in /  0.0 mm
10:33 71.6 °F /  22.0 °C 45.3 °F /  7.4 °C 29.9 in /  1011.7 hPa NW 9.2 mph /  14.8 km/h 9.2 mph /  14.8 km/h 39 % 0 in /  0.0 mm
10:38 72.3 °F /  22.4 °C 46 °F /  7.8 °C 29.9 in /  1011.7 hPa West 8.1 mph /  13.0 km/h 8.1 mph /  13.0 km/h 39 % 0 in /  0.0 mm
10:43 72.1 °F /  22.3 °C 45.1 °F /  7.3 °C 29.9 in /  1012.8 hPa SW 4.6 mph /  7.4 km/h 5.9 mph /  9.5 km/h 38 % 0 in /  0.0 mm
10:48 72 °F /  22.2 °C 45 °F /  7.2 °C 29.9 in /  1012.8 hPa WSW 8.1 mph /  13.0 km/h 8.1 mph /  13.0 km/h 38 % 0 in /  0.0 mm
10:53 72.3 °F /  22.4 °C 45.3 °F /  7.4 °C 29.9 in /  1012.8 hPa West 8.1 mph /  13.0 km/h 8.1 mph /  13.0 km/h 38 % 0 in /  0.0 mm
10:58 72.3 °F /  22.4 °C 44.6 °F /  7.0 °C 29.9 in /  1011.7 hPa WNW 6.9 mph /  11.1 km/h 6.9 mph /  11.1 km/h 37 % 0 in /  0.0 mm
11:03 72.9 °F /  22.7 °C 45.1 °F /  7.3 °C 29.9 in /  1011.7 hPa WNW 4.7 mph /  7.6 km/h 4.7 mph /  7.6 km/h 37 % 0 in /  0.0 mm
11:08 73.6 °F /  23.1 °C 45 °F /  7.2 °C 29.9 in /  1011.7 hPa WSW 3.5 mph /  5.6 km/h 3.5 mph /  5.6 km/h 36 % 0 in /  0.0 mm
11:13 73.6 °F /  23.1 °C 45 °F /  7.2 °C 29.9 in /  1011.7 hPa SW 6.9 mph /  11.1 km/h 6.9 mph /  11.1 km/h 36 % 0 in /  0.0 mm
11:18 74.3 °F /  23.5 °C 45.7 °F /  7.6 °C 29.9 in /  1011.7 hPa West 8.7 mph /  14.0 km/h 8.7 mph /  14.0 km/h 36 % 0 in /  0.0 mm
11:23 74.3 °F /  23.5 °C 45 °F /  7.2 °C 29.9 in /  1011.7 hPa SW 8.1 mph /  13.0 km/h 8.1 mph /  13.0 km/h 35 % 0 in /  0.0 mm
11:28 74.7 °F /  23.7 °C 45.1 °F /  7.3 °C 29.9 in /  1011.7 hPa NE 6.9 mph /  11.1 km/h 6.9 mph /  11.1 km/h 35 % 0 in /  0.0 mm
11:33 75.4 °F /  24.1 °C 45.9 °F /  7.7 °C 29.9 in /  1011.7 hPa NW 3.5 mph /  5.6 km/h 3.5 mph /  5.6 km/h 35 % 0 in /  0.0 mm
11:38 75.2 °F /  24.0 °C 45.7 °F /  7.6 °C 29.9 in /  1011.7 hPa WSW 8.1 mph /  13.0 km/h 8.1 mph /  13.0 km/h 35 % 0 in /  0.0 mm
11:43 75 °F /  23.9 °C 44.8 °F /  7.1 °C 29.9 in /  1011.7 hPa WNW 8.1 mph /  13.0 km/h 8.1 mph /  13.0 km/h 34 % 0 in /  0.0 mm
11:48 75.4 °F /  24.1 °C 45.1 °F /  7.3 °C 29.9 in /  1011.7 hPa West 4.6 mph /  7.4 km/h 4.6 mph /  7.4 km/h 34 % 0 in /  0.0 mm
11:53 75 °F /  23.9 °C 44.1 °F /  6.7 °C 29.9 in /  1011.7 hPa SW 5.8 mph /  9.3 km/h 5.8 mph /  9.3 km/h 33 % 0 in /  0.0 mm
11:58 75.7 °F /  24.3 °C 45.3 °F /  7.4 °C 29.9 in /  1011.7 hPa WSW 4.6 mph /  7.4 km/h 4.6 mph /  7.4 km/h 34 % 0 in /  0.0 mm
12:03 76.8 °F /  24.9 °C 46.2 °F /  7.9 °C 29.9 in /  1011.7 hPa SSW 4.6 mph /  7.4 km/h 4.6 mph /  7.4 km/h 34 % 0 in /  0.0 mm
12:08 76.5 °F /  24.7 °C 46 °F /  7.8 °C 29.9 in /  1011.7 hPa South 5.8 mph /  9.3 km/h 5.8 mph /  9.3 km/h 34 % 0 in /  0.0 mm
12:13 76.8 °F /  24.9 °C 44.8 °F /  7.1 °C 29.9 in /  1011.7 hPa WSW 5.8 mph /  9.3 km/h 5.8 mph /  9.3 km/h 32 % 0 in /  0.0 mm
12:18 77 °F /  25.0 °C 45 °F /  7.2 °C 29.9 in /  1011.7 hPa West 3.5 mph /  5.6 km/h 3.5 mph /  5.6 km/h 32 % 0 in /  0.0 mm
12:23 77.5 °F /  25.3 °C 45.3 °F /  7.4 °C 29.9 in /  1011.7 hPa NE 6.2 mph /  10.0 km/h 6.2 mph /  10.0 km/h 32 % 0 in /  0.0 mm
12:28 77.2 °F /  25.1 °C 44.2 °F /  6.8 °C 29.9 in /  1011.7 hPa SW 6.9 mph /  11.1 km/h 6.9 mph /  11.1 km/h 31 % 0 in /  0.0 mm
12:33 77.2 °F /  25.1 °C 44.2 °F /  6.8 °C 29.9 in /  1011.7 hPa NNE 3.5 mph /  5.6 km/h 3.5 mph /  5.6 km/h 31 % 0 in /  0.0 mm
12:38 78.3 °F /  25.7 °C 45.1 °F /  7.3 °C 29.9 in /  1011.7 hPa West 5.4 mph /  8.7 km/h 5.4 mph /  8.7 km/h 31 % 0 in /  0.0 mm
12:43 77.2 °F /  25.1 °C 43.3 °F /  6.3 °C 29.9 in /  1011.7 hPa NW 10.4 mph /  16.7 km/h 10.4 mph /  16.7 km/h 30 % 0 in /  0.0 mm
12:48 77.5 °F /  25.3 °C 42.8 °F /  6.0 °C 29.9 in /  1011.7 hPa WSW 4.6 mph /  7.4 km/h 4.6 mph /  7.4 km/h 29 % 0 in /  0.0 mm
12:53 77.7 °F /  25.4 °C 43.9 °F /  6.6 °C 29.9 in /  1011.7 hPa SW 7.6 mph /  12.2 km/h 7.6 mph /  12.2 km/h 30 % 0 in /  0.0 mm
12:58 77.4 °F /  25.2 °C 43.5 °F /  6.4 °C 29.9 in /  1011.7 hPa ENE 6.9 mph /  11.1 km/h 6.9 mph /  11.1 km/h 30 % 0 in /  0.0 mm
13:03 77 °F /  25.0 °C 42.3 °F /  5.7 °C 29.9 in /  1011.7 hPa West 7.6 mph /  12.2 km/h 7.6 mph /  12.2 km/h 29 % 0 in /  0.0 mm
13:08 76.8 °F /  24.9 °C 43 °F /  6.1 °C 29.9 in /  1011.7 hPa WSW 3.5 mph /  5.6 km/h 3.5 mph /  5.6 km/h 30 % 0 in /  0.0 mm
13:13 78.1 °F /  25.6 °C 43.2 °F /  6.2 °C 29.9 in /  1011.7 hPa SW 5.8 mph /  9.3 km/h 5.8 mph /  9.3 km/h 29 % 0 in /  0.0 mm
13:18 78.6 °F /  25.9 °C 43.7 °F /  6.5 °C 29.9 in /  1011.7 hPa West 10.4 mph /  16.7 km/h 10.4 mph /  16.7 km/h 29 % 0 in /  0.0 mm
13:23 78.4 °F /  25.8 °C 43.5 °F /  6.4 °C 29.9 in /  1011.7 hPa West 6 mph /  9.7 km/h 6 mph /  9.7 km/h 29 % 0 in /  0.0 mm
13:28 78.3 °F /  25.7 °C 43.3 °F /  6.3 °C 29.9 in /  1011.7 hPa WSW 8.1 mph /  13.0 km/h 8.1 mph /  13.0 km/h 29 % 0 in /  0.0 mm
13:33 78.3 °F /  25.7 °C 42.4 °F /  5.8 °C 29.9 in /  1011.7 hPa WSW 6.9 mph /  11.1 km/h 6.9 mph /  11.1 km/h 28 % 0 in /  0.0 mm
13:38 78.8 °F /  26.0 °C 43 °F /  6.1 °C 29.9 in /  1011.7 hPa WSW 6.9 mph /  11.1 km/h 6.9 mph /  11.1 km/h 28 % 0 in /  0.0 mm
13:43 78.3 °F /  25.7 °C 42.4 °F /  5.8 °C 29.9 in /  1011.7 hPa SW 6.9 mph /  11.1 km/h 6.9 mph /  11.1 km/h 28 % 0 in /  0.0 mm
13:48 78.4 °F /  25.8 °C 42.6 °F /  5.9 °C 29.9 in /  1011.7 hPa NW 7.4 mph /  11.9 km/h 7.4 mph /  11.9 km/h 28 % 0 in /  0.0 mm
13:53 77.9 °F /  25.5 °C 42.3 °F /  5.7 °C 29.9 in /  1011.7 hPa SW 9.2 mph /  14.8 km/h 9.2 mph /  14.8 km/h 28 % 0 in /  0.0 mm
13:58 78.4 °F /  25.8 °C 42.6 °F /  5.9 °C 29.9 in /  1011.7 hPa SW 9.2 mph /  14.8 km/h 9.2 mph /  14.8 km/h 28 % 0 in /  0.0 mm
14:00 78.8 °F /  26.0 °C 43 °F /  6.1 °C 29.9 in /  1011.7 hPa WNW 10.4 mph /  16.7 km/h 10.4 mph /  16.7 km/h 28 % 0 in /  0.0 mm
14:05 78.8 °F /  26.0 °C 43 °F /  6.1 °C 29.9 in /  1011.7 hPa West 11.5 mph /  18.5 km/h 11.5 mph /  18.5 km/h 28 % 0 in /  0.0 mm
14:10 78.4 °F /  25.8 °C 41.7 °F /  5.4 °C 29.9 in /  1011.7 hPa SW 9.2 mph /  14.8 km/h 9.2 mph /  14.8 km/h 27 % 0 in /  0.0 mm
14:15 79.2 °F /  26.2 °C 43.2 °F /  6.2 °C 29.8 in /  1010.7 hPa WNW 3.6 mph /  5.8 km/h 3.6 mph /  5.8 km/h 28 % 0 in /  0.0 mm
14:20 79.7 °F /  26.5 °C 42.8 °F /  6.0 °C 29.8 in /  1010.7 hPa West 7.6 mph /  12.2 km/h 7.6 mph /  12.2 km/h 27 % 0 in /  0.0 mm
14:25 79.3 °F /  26.3 °C 42.4 °F /  5.8 °C 29.8 in /  1010.7 hPa West 9 mph /  14.5 km/h 9 mph /  14.5 km/h 27 % 0 in /  0.0 mm
14:30 79.2 °F /  26.2 °C 42.3 °F /  5.7 °C 29.9 in /  1011.7 hPa West 5.8 mph /  9.3 km/h 5.8 mph /  9.3 km/h 27 % 0 in /  0.0 mm
14:35 79.3 °F /  26.3 °C 42.4 °F /  5.8 °C 29.9 in /  1011.7 hPa West 9.2 mph /  14.8 km/h 9.2 mph /  14.8 km/h 27 % 0 in /  0.0 mm
14:40 79.7 °F /  26.5 °C 41.7 °F /  5.4 °C 29.9 in /  1011.7 hPa West 5.8 mph /  9.3 km/h 5.8 mph /  9.3 km/h 26 % 0 in /  0.0 mm
14:45 79.9 °F /  26.6 °C 43 °F /  6.1 °C 29.9 in /  1011.7 hPa SE 5.8 mph /  9.3 km/h 5.8 mph /  9.3 km/h 27 % 0 in /  0.0 mm
14:50 78.8 °F /  26.0 °C 41 °F /  5.0 °C 29.9 in /  1011.7 hPa West 11.5 mph /  18.5 km/h 11.5 mph /  18.5 km/h 26 % 0 in /  0.0 mm
14:55 79 °F /  26.1 °C 41.2 °F /  5.1 °C 29.9 in /  1011.7 hPa WSW 5.8 mph /  9.3 km/h 5.9 mph /  9.5 km/h 26 % 0 in /  0.0 mm
15:00 78.8 °F /  26.0 °C 41 °F /  5.0 °C 29.9 in /  1011.7 hPa ENE 11.5 mph /  18.5 km/h 11.5 mph /  18.5 km/h 26 % 0 in /  0.0 mm
15:05 79.3 °F /  26.3 °C 41.5 °F /  5.3 °C 29.9 in /  1011.7 hPa WNW 12.7 mph /  20.4 km/h 12.7 mph /  20.4 km/h 26 % 0 in /  0.0 mm
15:10 79.7 °F /  26.5 °C 41.7 °F /  5.4 °C 29.9 in /  1011.7 hPa West 6.9 mph /  11.1 km/h 6.9 mph /  11.1 km/h 26 % 0 in /  0.0 mm
15:15 79 °F /  26.1 °C 41.2 °F /  5.1 °C 29.9 in /  1011.7 hPa SW 17.3 mph /  27.8 km/h 17.3 mph /  27.8 km/h 26 % 0 in /  0.0 mm
15:20 79.9 °F /  26.6 °C 41.9 °F /  5.5 °C 29.9 in /  1011.7 hPa SW 10.4 mph /  16.7 km/h 10.4 mph /  16.7 km/h 26 % 0 in /  0.0 mm
15:25 80.2 °F /  26.8 °C 42.3 °F /  5.7 °C 29.9 in /  1011.7 hPa WSW 8.1 mph /  13.0 km/h 8.1 mph /  13.0 km/h 26 % 0 in /  0.0 mm
15:30 80.8 °F /  27.1 °C 42.6 °F /  5.9 °C 29.9 in /  1011.7 hPa SSW 10.4 mph /  16.7 km/h 10.4 mph /  16.7 km/h 26 % 0 in /  0.0 mm
15:35 80.2 °F /  26.8 °C 42.3 °F /  5.7 °C 29.9 in /  1011.7 hPa WSW 8.1 mph /  13.0 km/h 8.1 mph /  13.0 km/h 26 % 0 in /  0.0 mm
15:40 80.4 °F /  26.9 °C 41.4 °F /  5.2 °C 29.9 in /  1011.7 hPa WSW 10.4 mph /  16.7 km/h 10.4 mph /  16.7 km/h 25 % 0 in /  0.0 mm
15:45 80.8 °F /  27.1 °C 42.6 °F /  5.9 °C 29.9 in /  1011.7 hPa WSW 6 mph /  9.7 km/h 6 mph /  9.7 km/h 26 % 0 in /  0.0 mm
15:50 80.4 °F /  26.9 °C 41.4 °F /  5.2 °C 29.9 in /  1011.7 hPa West 9.2 mph /  14.8 km/h 9.2 mph /  14.8 km/h 25 % 0 in /  0.0 mm
15:55 80.8 °F /  27.1 °C 41.7 °F /  5.4 °C 29.9 in /  1011.7 hPa NW 5.8 mph /  9.3 km/h 5.8 mph /  9.3 km/h 25 % 0 in /  0.0 mm
16:00 80.1 °F /  26.7 °C 41.2 °F /  5.1 °C 29.9 in /  1011.7 hPa NNW 11.5 mph /  18.5 km/h 11.5 mph /  18.5 km/h 25 % 0 in /  0.0 mm
16:05 80.8 °F /  27.1 °C 41.7 °F /  5.4 °C 29.9 in /  1011.7 hPa WSW 5.8 mph /  9.3 km/h 5.8 mph /  9.3 km/h 25 % 0 in /  0.0 mm
16:10 81.3 °F /  27.4 °C 43.2 °F /  6.2 °C 29.9 in /  1011.7 hPa West 6 mph /  9.7 km/h 6 mph /  9.7 km/h 26 % 0 in /  0.0 mm
16:15 81.1 °F /  27.3 °C 42.1 °F /  5.6 °C 29.9 in /  1011.7 hPa NW 8.1 mph /  13.0 km/h 8.1 mph /  13.0 km/h 25 % 0 in /  0.0 mm
16:20 80.4 °F /  26.9 °C 41.4 °F /  5.2 °C 29.9 in /  1011.7 hPa NNW 5.8 mph /  9.3 km/h 5.8 mph /  9.3 km/h 25 % 0 in /  0.0 mm
16:25 79.7 °F /  26.5 °C 40.8 °F /  4.9 °C 29.9 in /  1011.7 hPa West 5.8 mph /  9.3 km/h 5.8 mph /  9.3 km/h 25 % 0 in /  0.0 mm
16:30 80.6 °F /  27.0 °C 41.5 °F /  5.3 °C 29.8 in /  1010.7 hPa West 6.9 mph /  11.1 km/h 6.9 mph /  11.1 km/h 25 % 0 in /  0.0 mm
16:35 80.6 °F /  27.0 °C 41.5 °F /  5.3 °C 29.8 in /  1010.7 hPa SW 9.2 mph /  14.8 km/h 9.2 mph /  14.8 km/h 25 % 0 in /  0.0 mm
16:40 81.1 °F /  27.3 °C 43 °F /  6.1 °C 29.8 in /  1010.7 hPa ENE 5.8 mph /  9.3 km/h 5.8 mph /  9.3 km/h 26 % 0 in /  0.0 mm
16:45 81.3 °F /  27.4 °C 43.2 °F /  6.2 °C 29.8 in /  1010.7 hPa WSW 5.8 mph /  9.3 km/h 5.8 mph /  9.3 km/h 26 % 0 in /  0.0 mm
16:50 81.7 °F /  27.6 °C 43.5 °F /  6.4 °C 29.8 in /  1010.7 hPa SW 10.4 mph /  16.7 km/h 10.4 mph /  16.7 km/h 26 % 0 in /  0.0 mm
16:55 80.6 °F /  27.0 °C 42.4 °F /  5.8 °C 29.8 in /  1010.7 hPa SW 10.4 mph /  16.7 km/h 10.4 mph /  16.7 km/h 26 % 0 in /  0.0 mm
17:00 81.1 °F /  27.3 °C 43 °F /  6.1 °C 29.8 in /  1010.7 hPa SW 5.9 mph /  9.5 km/h 5.9 mph /  9.5 km/h 26 % 0 in /  0.0 mm
17:05 80.8 °F /  27.1 °C 42.6 °F /  5.9 °C 29.8 in /  1010.7 hPa West 10.4 mph /  16.7 km/h 10.4 mph /  16.7 km/h 26 % 0 in /  0.0 mm
17:06 80.8 °F /  27.1 °C 42.6 °F /  5.9 °C 29.8 in /  1010.7 hPa WSW 5.4 mph /  8.7 km/h 5.4 mph /  8.7 km/h 26 % 0 in /  0.0 mm
17:11 81.1 °F /  27.3 °C 43 °F /  6.1 °C 29.8 in /  1010.7 hPa SW 11.5 mph /  18.5 km/h 11.5 mph /  18.5 km/h 26 % 0 in /  0.0 mm
17:16 81.1 °F /  27.3 °C 43 °F /  6.1 °C 29.8 in /  1010.7 hPa NW 5.8 mph /  9.3 km/h 5.8 mph /  9.3 km/h 26 % 0 in /  0.0 mm
17:21 81 °F /  27.2 °C 42.8 °F /  6.0 °C 29.8 in /  1010.7 hPa West 6.9 mph /  11.1 km/h 6.9 mph /  11.1 km/h 26 % 0 in /  0.0 mm
17:26 81 °F /  27.2 °C 42.8 °F /  6.0 °C 29.8 in /  1010.0 hPa SSE 9.2 mph /  14.8 km/h 9.2 mph /  14.8 km/h 26 % 0 in /  0.0 mm
17:31 81.5 °F /  27.5 °C 43.3 °F /  6.3 °C 29.8 in /  1010.0 hPa WSW 7.8 mph /  12.6 km/h 7.8 mph /  12.6 km/h 26 % 0 in /  0.0 mm
17:36 80.6 °F /  27.0 °C 42.4 °F /  5.8 °C 29.8 in /  1010.0 hPa SSW 9.2 mph /  14.8 km/h 9.2 mph /  14.8 km/h 26 % 0 in /  0.0 mm
17:41 80.4 °F /  26.9 °C 42.4 °F /  5.8 °C 29.8 in /  1010.7 hPa West 6.9 mph /  11.1 km/h 6.9 mph /  11.1 km/h 26 % 0 in /  0.0 mm
17:46 79.9 °F /  26.6 °C 41.9 °F /  5.5 °C 29.8 in /  1010.7 hPa SSW 9.2 mph /  14.8 km/h 9.2 mph /  14.8 km/h 26 % 0 in /  0.0 mm
17:51 79.9 °F /  26.6 °C 41.9 °F /  5.5 °C 29.8 in /  1010.7 hPa WSW 6.9 mph /  11.1 km/h 6.9 mph /  11.1 km/h 26 % 0 in /  0.0 mm
17:56 80.6 °F /  27.0 °C 42.4 °F /  5.8 °C 29.8 in /  1010.7 hPa South 6.9 mph /  11.1 km/h 6.9 mph /  11.1 km/h 26 % 0 in /  0.0 mm
18:01 80.1 °F /  26.7 °C 42.1 °F /  5.6 °C 29.8 in /  1010.7 hPa WSW 8.1 mph /  13.0 km/h 8.1 mph /  13.0 km/h 26 % 0 in /  0.0 mm
18:06 80.8 °F /  27.1 °C 42.6 °F /  5.9 °C 29.8 in /  1010.7 hPa West 5.8 mph /  9.3 km/h 5.8 mph /  9.3 km/h 26 % 0 in /  0.0 mm
18:11 79.7 °F /  26.5 °C 41.7 °F /  5.4 °C 29.8 in /  1010.7 hPa WSW 12.7 mph /  20.4 km/h 12.7 mph /  20.4 km/h 26 % 0 in /  0.0 mm
18:16 78.6 °F /  25.9 °C 40.8 °F /  4.9 °C 29.8 in /  1010.7 hPa WSW 12.7 mph /  20.4 km/h 12.7 mph /  20.4 km/h 26 % 0 in /  0.0 mm
18:21 79.5 °F /  26.4 °C 41.5 °F /  5.3 °C 29.8 in /  1010.7 hPa WNW 7.6 mph /  12.2 km/h 7.6 mph /  12.2 km/h 26 % 0 in /  0.0 mm
18:26 78.8 °F /  26.0 °C 41 °F /  5.0 °C 29.8 in /  1010.7 hPa SSW 10.4 mph /  16.7 km/h 10.4 mph /  16.7 km/h 26 % 0 in /  0.0 mm
18:31 78.6 °F /  25.9 °C 40.8 °F /  4.9 °C 29.8 in /  1010.7 hPa West 15 mph /  24.1 km/h 15 mph /  24.1 km/h 26 % 0 in /  0.0 mm
18:36 78.1 °F /  25.6 °C 40.5 °F /  4.7 °C 29.8 in /  1010.7 hPa WNW 12.7 mph /  20.4 km/h 12.7 mph /  20.4 km/h 26 % 0 in /  0.0 mm
18:41 78.4 °F /  25.8 °C 40.6 °F /  4.8 °C 29.9 in /  1011.7 hPa SW 5.8 mph /  9.3 km/h 5.9 mph /  9.5 km/h 26 % 0 in /  0.0 mm
18:46 78.3 °F /  25.7 °C 40.5 °F /  4.7 °C 29.9 in /  1011.7 hPa South 11.5 mph /  18.5 km/h 11.5 mph /  18.5 km/h 26 % 0 in /  0.0 mm
18:51 77.7 °F /  25.4 °C 40.1 °F /  4.5 °C 29.9 in /  1011.7 hPa SE 9.2 mph /  14.8 km/h 9.2 mph /  14.8 km/h 26 % 0 in /  0.0 mm
18:56 77.5 °F /  25.3 °C 39.9 °F /  4.4 °C 29.8 in /  1010.7 hPa SW 6.9 mph /  11.1 km/h 6.9 mph /  11.1 km/h 26 % 0 in /  0.0 mm
19:01 77.2 °F /  25.1 °C 39.6 °F /  4.2 °C 29.8 in /  1010.7 hPa WSW 9.2 mph /  14.8 km/h 9.2 mph /  14.8 km/h 26 % 0 in /  0.0 mm
19:06 77.2 °F /  25.1 °C 40.6 °F /  4.8 °C 29.8 in /  1010.7 hPa SW 5.8 mph /  9.3 km/h 5.8 mph /  9.3 km/h 27 % 0 in /  0.0 mm
19:11 77.4 °F /  25.2 °C 40.8 °F /  4.9 °C 29.8 in /  1010.7 hPa NW 4.6 mph /  7.4 km/h 4.6 mph /  7.4 km/h 27 % 0 in /  0.0 mm
19:12 77.4 °F /  25.2 °C 40.8 °F /  4.9 °C 29.8 in /  1010.7 hPa WSW 5.8 mph /  9.3 km/h 5.8 mph /  9.3 km/h 27 % 0 in /  0.0 mm
19:15 66.4 °F /  19.1 °C 42.6 °F /  5.9 °C 30 in /  1015.8 hPa NE 3 mph /  4.8 km/h 6 mph /  9.7 km/h 42 % 0 in /  0.0 mm
19:17 77.5 °F /  25.3 °C 40.8 °F /  4.9 °C 29.8 in /  1010.7 hPa SW 5.8 mph /  9.3 km/h 5.8 mph /  9.3 km/h 27 % 0 in /  0.0 mm
19:22 77.4 °F /  25.2 °C 40.8 °F /  4.9 °C 29.8 in /  1010.7 hPa WSW 4.6 mph /  7.4 km/h 4.6 mph /  7.4 km/h 27 % 0 in /  0.0 mm
19:23 77.4 °F /  25.2 °C 40.8 °F /  4.9 °C 29.8 in /  1010.7 hPa West 5.6 mph /  9.0 km/h 5.6 mph /  9.0 km/h 27 % 0 in /  0.0 mm
19:25 66 °F /  18.9 °C 44.1 °F /  6.7 °C 30 in /  1015.8 hPa NE 2 mph /  3.2 km/h 4 mph /  6.4 km/h 45 % 0 in /  0.0 mm
19:28 77.4 °F /  25.2 °C 40.8 °F /  4.9 °C 29.9 in /  1011.7 hPa SW 5.4 mph /  8.7 km/h 5.4 mph /  8.7 km/h 27 % 0 in /  0.0 mm
19:33 77.2 °F /  25.1 °C 40.6 °F /  4.8 °C 29.9 in /  1011.7 hPa SW 7.6 mph /  12.2 km/h 7.6 mph /  12.2 km/h 27 % 0 in /  0.0 mm
19:35 65.5 °F /  18.6 °C 44.1 °F /  6.7 °C 30 in /  1014.8 hPa East 5 mph /  8.0 km/h 5 mph /  8.0 km/h 46 % 0 in /  0.0 mm
19:38 77 °F /  25.0 °C 40.5 °F /  4.7 °C 29.9 in /  1011.7 hPa SW 9.2 mph /  14.8 km/h 9.2 mph /  14.8 km/h 27 % 0 in /  0.0 mm
19:43 76.8 °F /  24.9 °C 41.2 °F /  5.1 °C 29.9 in /  1011.7 hPa West 8.5 mph /  13.7 km/h 8.5 mph /  13.7 km/h 28 % 0 in /  0.0 mm
19:48 76.6 °F /  24.8 °C 41.2 °F /  5.1 °C 29.9 in /  1011.7 hPa SW 9.2 mph /  14.8 km/h 9.2 mph /  14.8 km/h 28 % 0 in /  0.0 mm
19:53 76.6 °F /  24.8 °C 41.2 °F /  5.1 °C 29.9 in /  1011.7 hPa SSW 4.6 mph /  7.4 km/h 4.6 mph /  7.4 km/h 28 % 0 in /  0.0 mm
19:55 65.1 °F /  18.4 °C 44.4 °F /  6.9 °C 30 in /  1015.8 hPa ENE 3 mph /  4.8 km/h 4 mph /  6.4 km/h 47 % 0 in /  0.0 mm
19:58 76.5 °F /  24.7 °C 40.8 °F /  4.9 °C 29.9 in /  1011.7 hPa SW 11.5 mph /  18.5 km/h 11.5 mph /  18.5 km/h 28 % 0 in /  0.0 mm
20:03 76.3 °F /  24.6 °C 40.8 °F /  4.9 °C 29.9 in /  1011.7 hPa WSW 6.9 mph /  11.1 km/h 6.9 mph /  11.1 km/h 28 % 0 in /  0.0 mm
20:05 64.9 °F /  18.3 °C 44.8 °F /  7.1 °C 30 in /  1015.8 hPa NE 3 mph /  4.8 km/h 5 mph /  8.0 km/h 48 % 0 in /  0.0 mm
20:08 75.7 °F /  24.3 °C 40.3 °F /  4.6 °C 29.9 in /  1011.7 hPa West 8.1 mph /  13.0 km/h 8.1 mph /  13.0 km/h 28 % 0 in /  0.0 mm
20:13 75.6 °F /  24.2 °C 40.3 °F /  4.6 °C 29.9 in /  1011.7 hPa NNW 5.8 mph /  9.3 km/h 5.8 mph /  9.3 km/h 28 % 0 in /  0.0 mm
20:15 64.6 °F /  18.1 °C 45 °F /  7.2 °C 30 in /  1015.8 hPa NE 3 mph /  4.8 km/h 3 mph /  4.8 km/h 49 % 0 in /  0.0 mm
20:23 75 °F /  23.9 °C 39.7 °F /  4.3 °C 29.9 in /  1011.7 hPa West 5.8 mph /  9.3 km/h 5.8 mph /  9.3 km/h 28 % 0 in /  0.0 mm
20:25 64.4 °F /  18.0 °C 44.8 °F /  7.1 °C 30 in /  1014.8 hPa NE 5 mph /  8.0 km/h 5 mph /  8.0 km/h 49 % 0 in /  0.0 mm
20:28 74.8 °F /  23.8 °C 39.6 °F /  4.2 °C 29.9 in /  1011.7 hPa WSW 5.8 mph /  9.3 km/h 5.8 mph /  9.3 km/h 28 % 0 in /  0.0 mm
20:33 74.3 °F /  23.5 °C 39.9 °F /  4.4 °C 29.9 in /  1011.7 hPa WSW 5.8 mph /  9.3 km/h 5.8 mph /  9.3 km/h 29 % 0 in /  0.0 mm
20:35 64.2 °F /  17.9 °C 44.6 °F /  7.0 °C 30 in /  1015.8 hPa NE 2 mph /  3.2 km/h 5 mph /  8.0 km/h 49 % 0 in /  0.0 mm
20:38 74.1 °F /  23.4 °C 39.7 °F /  4.3 °C 29.9 in /  1011.7 hPa WSW 5.8 mph /  9.3 km/h 5.8 mph /  9.3 km/h 29 % 0 in /  0.0 mm
20:43 73.9 °F /  23.3 °C 39.7 °F /  4.3 °C 29.9 in /  1011.7 hPa West 3.5 mph /  5.6 km/h 3.5 mph /  5.6 km/h 29 % 0 in /  0.0 mm
20:45 63.9 °F /  17.7 °C 45 °F /  7.2 °C 30 in /  1015.8 hPa NE 1 mph /  1.6 km/h 2 mph /  3.2 km/h 50 % 0 in /  0.0 mm
20:48 73.9 °F /  23.3 °C 39.7 °F /  4.3 °C 29.9 in /  1011.7 hPa WSW 2.3 mph /  3.7 km/h 2.3 mph /  3.7 km/h 29 % 0 in /  0.0 mm
20:53 73.8 °F /  23.2 °C 39.6 °F /  4.2 °C 29.9 in /  1011.7 hPa SW 2.3 mph /  3.7 km/h 2.3 mph /  3.7 km/h 29 % 0 in /  0.0 mm
20:55 63.5 °F /  17.5 °C 44.4 °F /  6.9 °C 30 in /  1015.8 hPa Calm   1 mph /  1.6 km/h 50 % 0 in /  0.0 mm
20:58 73.8 °F /  23.2 °C 39.6 °F /  4.2 °C 29.9 in /  1011.7 hPa WSW 1.6 mph /  2.6 km/h 1.6 mph /  2.6 km/h 29 % 0 in /  0.0 mm
21:03 73.6 °F /  23.1 °C 39.4 °F /  4.1 °C 29.9 in /  1011.7 hPa SSW 4.6 mph /  7.4 km/h 4.6 mph /  7.4 km/h 29 % 0 in /  0.0 mm
21:05 63.3 °F /  17.4 °C 44.4 °F /  6.9 °C 30 in /  1015.8 hPa NE 2 mph /  3.2 km/h 2 mph /  3.2 km/h 50 % 0 in /  0.0 mm
21:08 73.4 °F /  23.0 °C 39.2 °F /  4.0 °C 29.9 in /  1011.7 hPa WNW 5.8 mph /  9.3 km/h 5.8 mph /  9.3 km/h 29 % 0 in /  0.0 mm
21:13 73.2 °F /  22.9 °C 39.9 °F /  4.4 °C 29.9 in /  1012.8 hPa South 2.3 mph /  3.7 km/h 2.3 mph /  3.7 km/h 30 % 0 in /  0.0 mm
21:15 62.8 °F /  17.1 °C 43.9 °F /  6.6 °C 30 in /  1015.8 hPa Calm   1 mph /  1.6 km/h 50 % 0 in /  0.0 mm
21:18 73.2 °F /  22.9 °C 39.9 °F /  4.4 °C 29.9 in /  1012.8 hPa ESE 2.3 mph /  3.7 km/h 2.3 mph /  3.7 km/h 30 % 0 in /  0.0 mm
21:23 73 °F /  22.8 °C 39.7 °F /  4.3 °C 29.9 in /  1012.8 hPa SW 4.6 mph /  7.4 km/h 4.6 mph /  7.4 km/h 30 % 0 in /  0.0 mm
21:25 62.4 °F /  16.9 °C 44.6 °F /  7.0 °C 30 in /  1015.8 hPa Calm   2 mph /  3.2 km/h 52 % 0 in /  0.0 mm
21:28 72.9 °F /  22.7 °C 39.6 °F /  4.2 °C 29.9 in /  1013.8 hPa West 5.8 mph /  9.3 km/h 5.8 mph /  9.3 km/h 30 % 0 in /  0.0 mm
21:33 72.5 °F /  22.5 °C 39.4 °F /  4.1 °C 29.9 in /  1013.8 hPa WSW 4.6 mph /  7.4 km/h 4.6 mph /  7.4 km/h 30 % 0 in /  0.0 mm
21:35 62.1 °F /  16.7 °C 44.2 °F /  6.8 °C 30 in /  1015.8 hPa WSW 1 mph /  1.6 km/h 2 mph /  3.2 km/h 52 % 0 in /  0.0 mm
21:38 72.3 °F /  22.4 °C 39 °F /  3.9 °C 29.9 in /  1013.8 hPa North 4.6 mph /  7.4 km/h 4.6 mph /  7.4 km/h 30 % 0 in /  0.0 mm
21:43 72.3 °F /  22.4 °C 39 °F /  3.9 °C 29.9 in /  1013.8 hPa WSW 2.3 mph /  3.7 km/h 2.3 mph /  3.7 km/h 30 % 0 in /  0.0 mm
21:45 62.2 °F /  16.8 °C 43.9 °F /  6.6 °C 30 in /  1015.8 hPa WSW 1 mph /  1.6 km/h 2 mph /  3.2 km/h 51 % 0 in /  0.0 mm
21:48 72.1 °F /  22.3 °C 39.7 °F /  4.3 °C 29.9 in /  1013.8 hPa West 2.3 mph /  3.7 km/h 2.3 mph /  3.7 km/h 31 % 0 in /  0.0 mm
21:53 72 °F /  22.2 °C 39.7 °F /  4.3 °C 29.9 in /  1013.8 hPa WSW 3.5 mph /  5.6 km/h 3.5 mph /  5.6 km/h 31 % 0 in /  0.0 mm
21:55 62.4 °F /  16.9 °C 44.1 °F /  6.7 °C 30 in /  1015.8 hPa WSW 1 mph /  1.6 km/h 2 mph /  3.2 km/h 51 % 0 in /  0.0 mm
21:58 71.8 °F /  22.1 °C 39.6 °F /  4.2 °C 29.9 in /  1013.8 hPa SSE 4.6 mph /  7.4 km/h 4.6 mph /  7.4 km/h 31 % 0 in /  0.0 mm
22:03 71.6 °F /  22.0 °C 39.4 °F /  4.1 °C 29.9 in /  1013.8 hPa SSW 4.6 mph /  7.4 km/h 4.6 mph /  7.4 km/h 31 % 0 in /  0.0 mm
22:05 62.4 °F /  16.9 °C 44.6 °F /  7.0 °C 30 in /  1015.8 hPa Calm   3 mph /  4.8 km/h 52 % 0 in /  0.0 mm
22:08 71.4 °F /  21.9 °C 39.2 °F /  4.0 °C 29.9 in /  1013.8 hPa SW 5.8 mph /  9.3 km/h 5.8 mph /  9.3 km/h 31 % 0 in /  0.0 mm
22:13 71.2 °F /  21.8 °C 39 °F /  3.9 °C 29.9 in /  1013.8 hPa WSW 3.5 mph /  5.6 km/h 3.5 mph /  5.6 km/h 31 % 0 in /  0.0 mm
22:15 62.4 °F /  16.9 °C 43.5 °F /  6.4 °C 30 in /  1015.8 hPa WSW 2 mph /  3.2 km/h 3 mph /  4.8 km/h 50 % 0 in /  0.0 mm
22:18 71.1 °F /  21.7 °C 38.8 °F /  3.8 °C 29.9 in /  1013.8 hPa WSW 3.5 mph /  5.6 km/h 3.5 mph /  5.6 km/h 31 % 0 in /  0.0 mm
22:23 70.9 °F /  21.6 °C 38.7 °F /  3.7 °C 29.9 in /  1013.8 hPa WSW 2.4 mph /  3.9 km/h 2.4 mph /  3.9 km/h 31 % 0 in /  0.0 mm
22:25 62.2 °F /  16.8 °C 42.8 °F /  6.0 °C 30 in /  1015.8 hPa Calm   2 mph /  3.2 km/h 49 % 0 in /  0.0 mm
22:28 70.7 °F /  21.5 °C 38.7 °F /  3.7 °C 30 in /  1014.8 hPa West 2.4 mph /  3.9 km/h 2.4 mph /  3.9 km/h 31 % 0 in /  0.0 mm
22:33 70.5 °F /  21.4 °C 39.2 °F /  4.0 °C 30 in /  1014.8 hPa SW 6.4 mph /  10.3 km/h 6.4 mph /  10.3 km/h 32 % 0 in /  0.0 mm
22:35 62.2 °F /  16.8 °C 42.8 °F /  6.0 °C 30 in /  1015.8 hPa SW 3 mph /  4.8 km/h 3 mph /  4.8 km/h 49 % 0 in /  0.0 mm
22:38 70.5 °F /  21.4 °C 39.2 °F /  4.0 °C 30 in /  1014.8 hPa West 2.3 mph /  3.7 km/h 2.3 mph /  3.7 km/h 32 % 0 in /  0.0 mm
22:43 70.3 °F /  21.3 °C 39 °F /  3.9 °C 30 in /  1014.8 hPa WSW 2.4 mph /  3.9 km/h 2.4 mph /  3.9 km/h 32 % 0 in /  0.0 mm
22:45 61.7 °F /  16.5 °C 43 °F /  6.1 °C 30 in /  1015.8 hPa WSW 1 mph /  1.6 km/h 3 mph /  4.8 km/h 50 % 0 in /  0.0 mm
22:48 70.3 °F /  21.3 °C 39 °F /  3.9 °C 30 in /  1014.8 hPa West 5.9 mph /  9.5 km/h 5.9 mph /  9.5 km/h 32 % 0 in /  0.0 mm
22:55 61.7 °F /  16.5 °C 42.3 °F /  5.7 °C 30 in /  1015.8 hPa West 1 mph /  1.6 km/h 2 mph /  3.2 km/h 49 % 0 in /  0.0 mm
22:58 70.2 °F /  21.2 °C 38.8 °F /  3.8 °C 30 in /  1014.8 hPa West 4.9 mph /  7.9 km/h 4.9 mph /  7.9 km/h 32 % 0 in /  0.0 mm
23:03 70 °F /  21.1 °C 38.8 °F /  3.8 °C 30 in /  1014.8 hPa SW 2.3 mph /  3.7 km/h 2.3 mph /  3.7 km/h 32 % 0 in /  0.0 mm
23:05 61.9 °F /  16.6 °C 42.1 °F /  5.6 °C 30 in /  1015.8 hPa West 3 mph /  4.8 km/h 3 mph /  4.8 km/h 48 % 0 in /  0.0 mm
23:08 70 °F /  21.1 °C 38.8 °F /  3.8 °C 30 in /  1014.8 hPa WNW 2.3 mph /  3.7 km/h 2.3 mph /  3.7 km/h 32 % 0 in /  0.0 mm
23:13 70 °F /  21.1 °C 38.8 °F /  3.8 °C 30 in /  1014.8 hPa WNW 2.3 mph /  3.7 km/h 2.3 mph /  3.7 km/h 32 % 0 in /  0.0 mm
23:15 61.2 °F /  16.2 °C 41.4 °F /  5.2 °C 30 in /  1015.8 hPa SW 1 mph /  1.6 km/h 3 mph /  4.8 km/h 48 % 0 in /  0.0 mm
23:18 69.8 °F /  21.0 °C 39.4 °F /  4.1 °C 30 in /  1014.8 hPa West 2 mph /  3.2 km/h 2 mph /  3.2 km/h 33 % 0 in /  0.0 mm
23:23 69.8 °F /  21.0 °C 39.4 °F /  4.1 °C 30 in /  1014.8 hPa SW 2.3 mph /  3.7 km/h 2.3 mph /  3.7 km/h 33 % 0 in /  0.0 mm
23:24 69.8 °F /  21.0 °C 39.4 °F /  4.1 °C 30 in /  1014.8 hPa SW 2.3 mph /  3.7 km/h 2.3 mph /  3.7 km/h 33 % 0 in /  0.0 mm
23:25 61.2 °F /  16.2 °C 41.4 °F /  5.2 °C 30 in /  1015.8 hPa SSW 1 mph /  1.6 km/h 3 mph /  4.8 km/h 48 % 0 in /  0.0 mm
23:29 69.6 °F /  20.9 °C 39.2 °F /  4.0 °C 30 in /  1014.8 hPa NW 3.5 mph /  5.6 km/h 3.5 mph /  5.6 km/h 33 % 0 in /  0.0 mm
23:34 69.4 °F /  20.8 °C 39 °F /  3.9 °C 30 in /  1014.8 hPa NNW 2.4 mph /  3.9 km/h   33 % 0 in /  0.0 mm
23:35 61.5 °F /  16.4 °C 41.5 °F /  5.3 °C 30 in /  1015.8 hPa SW 2 mph /  3.2 km/h 5 mph /  8.0 km/h 48 % 0 in /  0.0 mm
23:39 69.3 °F /  20.7 °C 39.7 °F /  4.3 °C 30 in /  1014.8 hPa West 1.2 mph /  1.9 km/h   34 % 0 in /  0.0 mm
23:44 68.9 °F /  20.5 °C 40.1 °F /  4.5 °C 30 in /  1015.8 hPa ESE 6 mph /  9.7 km/h 6 mph /  9.7 km/h 35 % 0 in /  0.0 mm
23:45 61.5 °F /  16.4 °C 41.2 °F /  5.1 °C 30 in /  1015.8 hPa SW 1 mph /  1.6 km/h 3 mph /  4.8 km/h 47 % 0 in /  0.0 mm
23:49 67.8 °F /  19.9 °C 41.9 °F /  5.5 °C 30 in /  1015.8 hPa East 4.6 mph /  7.4 km/h 4.6 mph /  7.4 km/h 39 % 0 in /  0.0 mm
23:54 67.5 °F /  19.7 °C 42.3 °F /  5.7 °C 30 in /  1015.8 hPa NNE 3.1 mph /  5.0 km/h 3.1 mph /  5.0 km/h 40 % 0 in /  0.0 mm
23:55 61.5 °F /  16.4 °C 41.2 °F /  5.1 °C 30 in /  1015.8 hPa WSW 3 mph /  4.8 km/h 3 mph /  4.8 km/h 47 % 0 in /  0.0 mm
23:59 67.1 °F /  19.5 °C 42.6 °F /  5.9 °C 30 in /  1015.8 hPa NE 2.4 mph /  3.9 km/h 2.4 mph /  3.9 km/h 41 % 0 in /  0.0 mm
Meteo Sesrovires
Elogis d' Weather Underground - 3.75 mb

Guio original per  Jim McMurry - jmcmurry@mwt.net Adaptat per a la plantilla per  Wim van der Kuil - Leuven-Template.eu

Trobareu la nostra informacio del temps tambe a:

Weather Underground

AWEKAS